createdAt,value
2023-02-02T00:01:21.096Z,1.90
2023-02-02T00:03:50.923Z,2.20
2023-02-02T00:06:20.170Z,2.10
2023-02-02T00:08:47.836Z,1.95
2023-02-02T00:11:15.833Z,2.20
2023-02-02T00:13:42.983Z,1.98
2023-02-02T00:16:28.997Z,1.92
2023-02-02T00:18:58.261Z,1.70
2023-02-02T00:21:25.932Z,2.35
2023-02-02T00:23:53.093Z,1.80
2023-02-02T00:26:20.180Z,2.13
2023-02-02T00:28:47.557Z,1.70
2023-02-02T00:31:14.657Z,1.75
2023-02-02T00:33:45.823Z,1.77
2023-02-02T00:36:12.873Z,1.80
2023-02-02T00:38:39.971Z,1.63
2023-02-02T00:41:07.394Z,1.75
2023-02-02T00:43:34.691Z,1.80
2023-02-02T00:46:02.178Z,1.77
2023-02-02T00:48:29.381Z,1.95
2023-02-02T00:50:57.387Z,2.80
2023-02-02T00:53:24.511Z,1.88
2023-02-02T00:55:51.562Z,1.77
2023-02-02T00:58:18.623Z,1.77
2023-02-02T01:00:45.603Z,2.25
2023-02-02T01:03:13.385Z,1.90
2023-02-02T01:05:40.876Z,1.77
2023-02-02T01:08:07.859Z,2.10
2023-02-02T01:10:35.554Z,1.83
2023-02-02T01:13:02.623Z,1.70
2023-02-02T01:15:30.579Z,1.85
2023-02-02T01:17:58.354Z,2.40
2023-02-02T01:20:26.063Z,2.30
2023-02-02T01:22:53.086Z,2.10
2023-02-02T01:25:20.110Z,2.05
2023-02-02T01:27:47.113Z,1.90
2023-02-02T01:30:14.569Z,1.92
2023-02-02T01:32:41.518Z,1.83
2023-02-02T01:35:10.224Z,2.17
2023-02-02T01:37:38.562Z,2.03
2023-02-02T01:40:06.327Z,2.08
2023-02-02T01:42:33.456Z,1.88
2023-02-02T01:45:18.169Z,1.80
2023-02-02T01:47:53.234Z,2.03
2023-02-02T01:50:24.210Z,1.80
2023-02-02T01:52:54.000Z,2.08
2023-02-02T01:55:24.170Z,1.92
2023-02-02T01:58:11.804Z,1.95
2023-02-02T02:00:41.375Z,2.08
2023-02-02T02:03:12.885Z,2.10
2023-02-02T02:05:51.621Z,2.00
2023-02-02T02:08:21.941Z,1.73
2023-02-02T02:10:49.445Z,1.60
2023-02-02T02:13:17.487Z,2.00
2023-02-02T02:16:19.715Z,1.73
2023-02-02T02:19:28.558Z,2.15
2023-02-02T02:22:26.742Z,1.77
2023-02-02T02:25:18.317Z,1.50
2023-02-02T02:28:07.972Z,1.73
2023-02-02T02:30:55.886Z,3.13
2023-02-02T02:33:36.966Z,1.60
2023-02-02T02:36:28.589Z,2.33
2023-02-02T02:39:25.383Z,2.33
2023-02-02T02:41:58.138Z,2.35
2023-02-02T02:44:28.094Z,2.15
2023-02-02T02:46:56.183Z,2.10
2023-02-02T02:49:23.977Z,1.98
2023-02-02T02:51:53.779Z,2.28
2023-02-02T02:54:38.814Z,2.05
2023-02-02T02:59:56.396Z,2.63
2023-02-02T03:02:41.245Z,2.92
2023-02-02T03:05:11.690Z,2.30
2023-02-02T03:08:10.115Z,2.30
2023-02-02T03:10:40.537Z,2.28
2023-02-02T03:13:10.847Z,2.60
2023-02-02T03:15:41.815Z,2.00
2023-02-02T03:18:09.340Z,2.28
2023-02-02T03:20:36.805Z,2.17
2023-02-02T03:23:03.949Z,2.20
2023-02-02T03:25:31.461Z,2.20
2023-02-02T03:27:59.459Z,2.10
2023-02-02T03:30:27.217Z,2.13
2023-02-02T03:32:54.724Z,2.30
2023-02-02T03:35:22.458Z,2.83
2023-02-02T03:37:49.651Z,2.75
2023-02-02T03:40:17.051Z,2.08
2023-02-02T03:42:44.102Z,1.83
2023-02-02T03:45:11.840Z,1.77
2023-02-02T03:47:39.336Z,1.92
2023-02-02T03:50:09.123Z,2.05
2023-02-02T03:52:37.301Z,1.88
2023-02-02T03:55:05.612Z,2.08
2023-02-02T03:57:33.276Z,1.50
2023-02-02T04:00:00.389Z,2.00
2023-02-02T04:02:27.648Z,1.60
2023-02-02T04:04:55.101Z,2.08
2023-02-02T04:07:22.575Z,2.08
2023-02-02T04:09:50.069Z,2.20
2023-02-02T04:12:17.267Z,1.75
2023-02-02T04:14:44.349Z,2.00
2023-02-02T04:17:11.713Z,1.90
2023-02-02T04:19:38.832Z,1.75
2023-02-02T04:22:06.062Z,2.00
2023-02-02T04:24:33.245Z,2.30
2023-02-02T04:27:00.635Z,1.50
2023-02-02T04:29:27.829Z,1.85
2023-02-02T04:31:55.188Z,1.90
2023-02-02T04:34:22.575Z,1.83
2023-02-02T04:36:49.994Z,1.75
2023-02-02T04:39:17.315Z,2.25
2023-02-02T04:41:44.419Z,1.73
2023-02-02T04:44:15.779Z,1.80
2023-02-02T04:46:46.199Z,2.13
2023-02-02T04:49:13.852Z,1.70
2023-02-02T04:51:41.473Z,1.90
2023-02-02T04:54:09.030Z,1.80
2023-02-02T04:56:36.346Z,2.03
2023-02-02T04:59:03.637Z,2.00
2023-02-02T05:01:31.214Z,2.05
2023-02-02T05:03:58.719Z,2.10
2023-02-02T05:06:26.299Z,1.88
2023-02-02T05:08:53.519Z,1.85
2023-02-02T05:11:22.940Z,1.67
2023-02-02T05:13:54.428Z,1.70
2023-02-02T05:16:22.270Z,2.63
2023-02-02T05:18:54.899Z,1.85
2023-02-02T05:21:22.766Z,1.58
2023-02-02T05:23:50.852Z,1.77
2023-02-02T05:26:22.269Z,1.60
2023-02-02T05:28:49.690Z,1.80
2023-02-02T05:31:17.348Z,1.50
2023-02-02T05:33:44.906Z,1.67
2023-02-02T05:36:12.340Z,1.60
2023-02-02T05:38:39.496Z,1.63
2023-02-02T05:41:06.772Z,1.70
2023-02-02T05:43:34.142Z,1.80
2023-02-02T05:46:01.825Z,1.80
2023-02-02T05:48:29.216Z,1.48
2023-02-02T05:51:10.451Z,1.52
2023-02-02T05:53:37.732Z,1.75
2023-02-02T05:56:05.403Z,1.85
2023-02-02T05:58:32.437Z,1.77
2023-02-02T06:00:59.852Z,2.13
2023-02-02T06:03:27.185Z,1.80
2023-02-02T06:05:54.789Z,1.90
2023-02-02T06:08:22.229Z,1.90
2023-02-02T06:10:49.868Z,2.00
2023-02-02T06:13:17.055Z,1.83
2023-02-02T06:15:44.953Z,1.95
2023-02-02T06:18:12.412Z,1.65
2023-02-02T06:20:40.129Z,1.85
2023-02-02T06:23:07.628Z,2.15
2023-02-02T06:25:35.134Z,1.92
2023-02-02T06:28:02.356Z,1.90
2023-02-02T06:30:29.425Z,1.80
2023-02-02T06:32:58.866Z,1.75
2023-02-02T06:35:26.342Z,1.92
2023-02-02T06:37:53.823Z,2.13
2023-02-02T06:40:21.331Z,2.00
2023-02-02T06:42:48.701Z,1.73
2023-02-02T06:45:16.001Z,2.03
2023-02-02T06:47:43.230Z,1.90
2023-02-02T06:50:10.912Z,1.60
2023-02-02T06:52:37.911Z,1.80
2023-02-02T06:55:05.135Z,1.90
2023-02-02T06:57:32.222Z,1.90
2023-02-02T06:59:59.355Z,2.47
2023-02-02T07:02:26.700Z,1.80
2023-02-02T07:04:53.822Z,1.73
2023-02-02T07:07:20.968Z,1.98
2023-02-02T07:09:48.061Z,1.90
2023-02-02T07:12:27.126Z,2.15
2023-02-02T07:14:54.718Z,1.88
2023-02-02T07:17:22.225Z,1.92
2023-02-02T07:19:49.393Z,2.15
2023-02-02T07:22:16.451Z,2.78
2023-02-02T07:24:43.644Z,2.75
2023-02-02T07:27:10.689Z,1.92
2023-02-02T07:29:38.076Z,2.20
2023-02-02T07:32:05.834Z,2.28
2023-02-02T07:34:33.087Z,1.70
2023-02-02T07:37:00.349Z,1.63
2023-02-02T07:39:29.120Z,1.83
2023-02-02T07:41:56.381Z,1.65
2023-02-02T07:44:23.673Z,1.80
2023-02-02T07:46:51.026Z,1.70
2023-02-02T07:49:20.427Z,3.47
2023-02-02T07:51:49.274Z,2.13
2023-02-02T07:54:16.746Z,2.05
2023-02-02T07:56:44.265Z,1.60
2023-02-02T07:59:12.290Z,1.90
2023-02-02T08:01:39.633Z,1.52
2023-02-02T08:04:07.008Z,1.52
2023-02-02T08:06:37.320Z,1.77
2023-02-02T08:09:10.341Z,1.83
2023-02-02T08:11:38.644Z,1.70
2023-02-02T08:14:06.479Z,1.55
2023-02-02T08:16:34.685Z,1.90
2023-02-02T08:19:02.087Z,1.83
2023-02-02T08:21:29.201Z,1.70
2023-02-02T08:23:56.480Z,1.60
2023-02-02T08:26:26.254Z,1.60
2023-02-02T08:28:59.425Z,1.73
2023-02-02T08:31:31.542Z,2.30
2023-02-02T08:33:59.192Z,1.70
2023-02-02T08:36:28.395Z,1.60
2023-02-02T08:38:56.181Z,1.77
2023-02-02T08:41:24.441Z,2.33
2023-02-02T08:43:52.195Z,1.83
2023-02-02T08:46:21.332Z,2.00
2023-02-02T08:48:49.264Z,1.73
2023-02-02T08:51:19.723Z,1.90
2023-02-02T08:53:47.404Z,1.70
2023-02-02T08:56:19.115Z,1.85
2023-02-02T08:58:50.728Z,1.70
2023-02-02T09:01:22.529Z,1.77
2023-02-02T09:03:53.466Z,1.92
2023-02-02T09:06:21.572Z,1.65
2023-02-02T09:08:48.926Z,1.40
2023-02-02T09:11:18.440Z,1.83
2023-02-02T09:13:49.271Z,2.25
2023-02-02T09:16:18.533Z,1.75
2023-02-02T09:18:46.262Z,1.73
2023-02-02T09:21:15.768Z,1.55
2023-02-02T09:23:45.032Z,1.77
2023-02-02T09:26:27.871Z,1.55
2023-02-02T09:28:57.318Z,1.75
2023-02-02T09:31:25.782Z,1.80
2023-02-02T09:33:53.000Z,2.15
2023-02-02T09:36:22.365Z,1.60
2023-02-02T09:38:51.311Z,1.70
2023-02-02T09:41:56.001Z,1.75
2023-02-02T09:44:41.570Z,1.65
2023-02-02T09:47:29.556Z,1.98
2023-02-02T09:50:18.781Z,1.83
2023-02-02T09:52:55.475Z,1.80
2023-02-02T09:55:35.564Z,2.22
2023-02-02T09:58:22.369Z,1.75
2023-02-02T10:01:13.850Z,2.10
2023-02-02T10:03:54.786Z,2.15
2023-02-02T10:06:39.311Z,2.47
2023-02-02T10:09:23.640Z,1.77
2023-02-02T10:12:09.663Z,2.00
2023-02-02T10:15:23.405Z,2.00
2023-02-02T10:18:06.463Z,1.92
2023-02-02T10:20:54.223Z,2.25
2023-02-02T10:23:45.036Z,2.00
2023-02-02T10:26:26.748Z,2.35
2023-02-02T10:29:23.947Z,2.10
2023-02-02T10:32:15.033Z,2.17
2023-02-02T10:34:44.417Z,2.38
2023-02-02T10:37:50.336Z,1.90
2023-02-02T10:40:55.002Z,1.95
2023-02-02T10:43:48.435Z,2.10
2023-02-02T10:46:27.839Z,1.95
2023-02-02T10:49:15.622Z,1.75
2023-02-02T10:51:51.814Z,2.00
2023-02-02T10:54:56.421Z,2.10
2023-02-02T11:00:06.070Z,2.20
2023-02-02T11:02:33.270Z,2.78
2023-02-02T11:05:18.831Z,2.25
2023-02-02T11:07:46.200Z,1.77
2023-02-02T11:10:13.501Z,1.80
2023-02-02T11:12:45.252Z,1.80
2023-02-02T11:15:28.447Z,1.60
2023-02-02T11:17:55.708Z,1.73
2023-02-02T11:20:34.624Z,1.80
2023-02-02T11:23:04.123Z,1.50
2023-02-02T11:25:37.898Z,1.60
2023-02-02T11:28:20.507Z,1.80
2023-02-02T11:30:52.406Z,1.23
2023-02-02T11:33:35.474Z,1.27
2023-02-02T11:36:06.154Z,1.52
2023-02-02T11:38:33.455Z,1.70
2023-02-02T11:41:11.077Z,1.60
2023-02-02T11:43:51.023Z,1.55
2023-02-02T11:46:29.235Z,1.65
2023-02-02T11:49:04.283Z,1.60
2023-02-02T11:51:32.291Z,1.73
2023-02-02T11:54:08.551Z,1.52
2023-02-02T11:56:38.154Z,1.63
2023-02-02T11:59:05.567Z,1.80
2023-02-02T12:01:36.097Z,1.40
2023-02-02T12:04:24.183Z,1.70
2023-02-02T12:06:51.833Z,1.90
2023-02-02T12:09:25.081Z,1.77
2023-02-02T12:12:12.071Z,1.70
2023-02-02T12:15:03.492Z,1.70
2023-02-02T12:17:43.049Z,1.90
2023-02-02T12:20:30.466Z,1.83
2023-02-02T12:23:19.462Z,2.03
2023-02-02T12:26:07.650Z,2.22
2023-02-02T12:29:18.820Z,2.03
2023-02-02T12:32:23.655Z,2.60
2023-02-02T12:34:59.680Z,2.10
2023-02-02T12:37:45.779Z,1.75
2023-02-02T12:40:36.003Z,2.10
2023-02-02T12:43:06.021Z,2.40
2023-02-02T12:46:01.008Z,2.55
2023-02-02T12:48:57.647Z,2.05
2023-02-02T12:51:24.756Z,1.85
2023-02-02T12:54:34.519Z,2.00
2023-02-02T12:57:16.721Z,1.90
2023-02-02T13:00:14.605Z,2.10
2023-02-02T13:03:07.089Z,2.08
2023-02-02T13:05:54.421Z,1.95
2023-02-02T13:08:48.660Z,2.47
2023-02-02T13:11:32.965Z,1.92
2023-02-02T13:14:13.933Z,1.80
2023-02-02T13:16:48.566Z,1.70
2023-02-02T13:21:59.418Z,2.15
2023-02-02T13:24:38.856Z,1.50
2023-02-02T13:27:12.345Z,1.50
2023-02-02T13:29:53.976Z,1.88
2023-02-02T13:32:37.518Z,1.67
2023-02-02T13:35:29.543Z,1.55
2023-02-02T13:38:18.050Z,1.30
2023-02-02T13:40:45.576Z,1.42
2023-02-02T13:43:27.547Z,1.33
2023-02-02T13:46:23.758Z,1.55
2023-02-02T13:48:58.833Z,1.60
2023-02-02T13:52:01.007Z,1.92
2023-02-02T13:55:09.826Z,2.35
2023-02-02T14:00:39.773Z,1.58
2023-02-02T14:03:42.030Z,1.88
2023-02-02T14:06:23.863Z,1.33
2023-02-02T14:09:05.638Z,1.30
2023-02-02T14:11:38.887Z,1.60
2023-02-02T14:14:34.564Z,2.08
2023-02-02T14:17:24.526Z,1.63
2023-02-02T14:19:56.383Z,1.30
2023-02-02T14:22:54.550Z,1.35
2023-02-02T14:25:33.491Z,1.73
2023-02-02T14:28:03.779Z,1.45
2023-02-02T14:30:35.212Z,1.80
2023-02-02T14:33:20.992Z,2.17
2023-02-02T14:35:47.868Z,1.90
2023-02-02T14:38:37.376Z,1.50
2023-02-02T14:41:52.740Z,1.20
2023-02-02T14:44:20.081Z,1.42
2023-02-02T14:46:49.419Z,1.20
2023-02-02T14:49:20.482Z,1.50
2023-02-02T14:51:52.043Z,1.63
2023-02-02T14:54:35.918Z,1.70
2023-02-02T14:57:20.311Z,1.27
2023-02-02T14:59:48.232Z,1.60
2023-02-02T15:02:20.171Z,1.52
2023-02-02T15:04:48.294Z,1.60
2023-02-02T15:07:24.498Z,1.70
2023-02-02T15:09:56.383Z,1.50
2023-02-02T15:12:41.197Z,1.40
2023-02-02T15:15:29.735Z,1.80
2023-02-02T15:18:33.286Z,1.60
2023-02-02T15:21:05.375Z,1.90
2023-02-02T15:23:39.705Z,1.42
2023-02-02T15:26:19.979Z,1.80
2023-02-02T15:28:52.057Z,2.00
2023-02-02T15:31:28.742Z,1.85
2023-02-02T15:34:01.345Z,2.47
2023-02-02T15:36:35.689Z,2.15
2023-02-02T15:39:16.520Z,2.38
2023-02-02T15:41:45.160Z,2.00
2023-02-02T15:44:21.764Z,1.90
2023-02-02T15:46:49.559Z,2.08
2023-02-02T15:49:36.077Z,1.90
2023-02-02T15:52:21.218Z,2.58
2023-02-02T15:54:54.585Z,1.98
2023-02-02T15:57:27.876Z,1.95
2023-02-02T15:59:55.088Z,1.98
2023-02-02T16:02:31.381Z,1.77
2023-02-02T16:04:59.087Z,2.28
2023-02-02T16:07:31.293Z,1.73
2023-02-02T16:10:07.482Z,1.90
2023-02-02T16:12:35.548Z,2.22
2023-02-02T16:15:02.809Z,1.70
2023-02-02T16:17:35.551Z,1.95
2023-02-02T16:20:14.437Z,2.17
2023-02-02T16:22:45.258Z,1.90
2023-02-02T16:25:19.482Z,2.78
2023-02-02T16:27:49.563Z,1.80
2023-02-02T16:30:35.731Z,1.60
2023-02-02T16:33:35.236Z,1.60
2023-02-02T16:36:25.717Z,1.73
2023-02-02T16:38:55.138Z,1.77
2023-02-02T16:41:32.744Z,2.20
2023-02-02T16:44:30.383Z,1.90
2023-02-02T16:46:58.419Z,2.22
2023-02-02T16:49:27.512Z,1.80
2023-02-02T16:52:17.528Z,2.33
2023-02-02T16:54:56.162Z,1.95
2023-02-02T16:57:33.092Z,1.90
2023-02-02T17:00:06.045Z,1.90
2023-02-02T17:02:39.469Z,1.70
2023-02-02T17:05:29.335Z,2.10
2023-02-02T17:08:00.795Z,2.00
2023-02-02T17:10:35.994Z,2.00
2023-02-02T17:13:23.912Z,2.13
2023-02-02T17:15:54.288Z,2.08
2023-02-02T17:18:21.405Z,2.25
2023-02-02T17:20:54.152Z,2.35
2023-02-02T17:23:21.298Z,2.30
2023-02-02T17:25:49.138Z,2.53
2023-02-02T17:28:21.496Z,2.10
2023-02-02T17:30:55.577Z,2.88
2023-02-02T17:33:24.606Z,2.45
2023-02-02T17:35:55.653Z,2.83
2023-02-02T17:38:24.764Z,2.65
2023-02-02T17:40:52.802Z,2.65
2023-02-02T17:43:20.072Z,3.60
2023-02-02T17:45:47.702Z,2.90
2023-02-02T17:48:15.136Z,2.95
2023-02-02T17:50:43.013Z,2.63
2023-02-02T17:53:12.313Z,2.65
2023-02-02T17:55:42.062Z,2.20
2023-02-02T17:58:10.633Z,2.30
2023-02-02T18:00:38.970Z,2.35
2023-02-02T18:03:24.257Z,2.42
2023-02-02T18:05:51.700Z,2.22
2023-02-02T18:08:19.234Z,2.22
2023-02-02T18:10:46.397Z,3.20
2023-02-02T18:13:19.607Z,2.60
2023-02-02T18:15:47.605Z,3.15
2023-02-02T18:18:14.955Z,2.60
2023-02-02T18:20:46.765Z,2.50
2023-02-02T18:23:14.819Z,2.65
2023-02-02T18:25:42.528Z,2.70
2023-02-02T18:28:10.798Z,3.42
2023-02-02T18:30:39.689Z,2.13
2023-02-02T18:33:11.466Z,2.10
2023-02-02T18:35:45.550Z,2.10
2023-02-02T18:38:13.310Z,2.10
2023-02-02T18:40:40.469Z,2.00
2023-02-02T18:43:07.835Z,2.15
2023-02-02T18:45:36.131Z,2.13
2023-02-02T18:48:03.376Z,2.00
2023-02-02T18:50:30.415Z,2.88
2023-02-02T18:52:57.789Z,3.00
2023-02-02T18:55:26.250Z,2.95
2023-02-02T18:57:53.721Z,2.38
2023-02-02T19:00:22.135Z,2.28
2023-02-02T19:02:49.208Z,2.50
2023-02-02T19:05:36.125Z,2.70
2023-02-02T19:08:05.784Z,2.70
2023-02-02T19:10:33.086Z,2.33
2023-02-02T19:13:06.163Z,2.20
2023-02-02T19:15:39.323Z,2.47
2023-02-02T19:18:22.016Z,2.40
2023-02-02T19:20:50.375Z,2.70
2023-02-02T19:23:23.586Z,2.40
2023-02-02T19:25:55.176Z,2.67
2023-02-02T19:28:23.537Z,2.83
2023-02-02T19:30:52.979Z,2.60
2023-02-02T19:33:21.089Z,2.13
2023-02-02T19:35:52.461Z,2.40
2023-02-02T19:38:20.719Z,2.30
2023-02-02T19:40:48.024Z,2.35
2023-02-02T19:43:26.406Z,2.60
2023-02-02T19:45:55.331Z,2.95
2023-02-02T19:48:27.274Z,3.28
2023-02-02T19:50:55.905Z,2.85
2023-02-02T19:53:31.837Z,2.55
2023-02-02T19:55:59.020Z,2.40
2023-02-02T19:58:39.144Z,2.25
2023-02-02T20:01:19.496Z,2.60
2023-02-02T20:03:46.849Z,2.05
2023-02-02T20:06:26.375Z,2.13
2023-02-02T20:08:53.738Z,2.10
2023-02-02T20:11:23.982Z,2.30
2023-02-02T20:13:51.845Z,1.80
2023-02-02T20:16:23.867Z,2.38
2023-02-02T20:18:55.804Z,1.75
2023-02-02T20:21:34.360Z,1.98
2023-02-02T20:24:01.546Z,2.13
2023-02-02T20:26:37.512Z,2.33
2023-02-02T20:29:41.526Z,2.35
2023-02-02T20:32:18.281Z,2.00
2023-02-02T20:34:45.820Z,2.80
2023-02-02T20:37:12.877Z,2.50
2023-02-02T20:40:00.304Z,3.85
2023-02-02T20:42:28.739Z,2.47
2023-02-02T20:44:58.150Z,2.92
2023-02-02T20:47:25.437Z,2.17
2023-02-02T20:49:52.713Z,2.13
2023-02-02T20:52:24.216Z,3.00
2023-02-02T20:54:52.470Z,1.70
2023-02-02T20:57:19.671Z,1.75
2023-02-02T20:59:46.701Z,1.55
2023-02-02T21:02:19.566Z,1.55
2023-02-02T21:04:48.481Z,1.40
2023-02-02T21:07:17.709Z,1.55
2023-02-02T21:09:45.820Z,1.20
2023-02-02T21:12:13.486Z,1.05
2023-02-02T21:14:41.171Z,1.40
2023-02-02T21:17:15.236Z,1.20
2023-02-02T21:22:11.149Z,1.52
2023-02-02T21:24:38.618Z,1.30
2023-02-02T21:27:05.954Z,2.50
2023-02-02T21:29:33.509Z,1.55
2023-02-02T21:32:02.759Z,1.50
2023-02-02T21:34:31.009Z,1.30
2023-02-02T21:36:58.738Z,1.30
2023-02-02T21:39:33.682Z,1.10
2023-02-02T21:42:09.698Z,1.25
2023-02-02T21:44:43.520Z,1.38
2023-02-02T21:47:21.541Z,1.03
2023-02-02T21:49:48.712Z,1.05
2023-02-02T21:52:18.533Z,1.15
2023-02-02T21:54:46.725Z,1.38
2023-02-02T21:57:28.902Z,1.58
2023-02-02T21:59:57.285Z,1.20
2023-02-02T22:02:49.024Z,0.93
2023-02-02T22:05:26.418Z,0.82
2023-02-02T22:07:58.027Z,1.10
2023-02-02T22:10:36.091Z,0.88
2023-02-02T22:13:19.859Z,0.90
2023-02-02T22:15:49.372Z,1.00
2023-02-02T22:18:21.990Z,1.00
2023-02-02T22:20:53.274Z,1.08
2023-02-02T22:23:26.708Z,1.10
2023-02-02T22:25:56.147Z,0.88
2023-02-02T22:28:28.252Z,1.20
2023-02-02T22:30:56.839Z,1.30
2023-02-02T22:33:26.289Z,0.93
2023-02-02T22:35:54.188Z,1.00
2023-02-02T22:38:23.580Z,0.95
2023-02-02T22:40:51.844Z,1.13
2023-02-02T22:43:20.638Z,1.17
2023-02-02T22:45:48.406Z,1.02
2023-02-02T22:48:16.366Z,0.80
2023-02-02T22:50:43.578Z,1.10
2023-02-02T22:53:10.920Z,0.90
2023-02-02T22:55:38.008Z,1.15
2023-02-02T22:58:05.094Z,1.10
2023-02-02T23:00:33.206Z,1.45
2023-02-02T23:03:01.360Z,1.48
2023-02-02T23:05:29.029Z,1.20
2023-02-02T23:07:56.672Z,1.55
2023-02-02T23:10:27.289Z,1.30
2023-02-02T23:12:56.012Z,1.20
2023-02-02T23:15:23.408Z,1.20
2023-02-02T23:17:50.583Z,1.10
2023-02-02T23:20:18.961Z,1.05
2023-02-02T23:22:46.158Z,1.10
2023-02-02T23:25:14.329Z,1.10
2023-02-02T23:27:41.842Z,1.27
2023-02-02T23:30:10.660Z,1.20
2023-02-02T23:32:38.081Z,1.20
2023-02-02T23:35:06.957Z,2.05
2023-02-02T23:37:35.425Z,1.50
2023-02-02T23:40:02.715Z,1.40
2023-02-02T23:42:29.803Z,1.98
2023-02-02T23:44:56.977Z,1.50
2023-02-02T23:47:24.354Z,1.23
2023-02-02T23:49:51.758Z,1.40
2023-02-02T23:52:19.302Z,1.30
2023-02-02T23:54:46.712Z,1.67
2023-02-02T23:57:13.789Z,1.40
2023-02-02T23:59:41.000Z,1.15
